createdAt,value
2022-08-09T00:02:07.563Z,99492.34
2022-08-09T00:05:03.569Z,99510.59
2022-08-09T00:08:00.101Z,99525.34
2022-08-09T00:10:47.902Z,99528.06
2022-08-09T00:13:34.186Z,99541.22
2022-08-09T00:16:26.429Z,99520.50
2022-08-09T00:19:24.903Z,99544.72
2022-08-09T00:22:13.897Z,99554.34
2022-08-09T00:25:08.510Z,99528.50
2022-08-09T00:27:56.607Z,99520.66
2022-08-09T00:30:43.086Z,99543.91
2022-08-09T00:33:32.523Z,99498.25
2022-08-09T00:36:36.486Z,99519.06
2022-08-09T00:40:13.094Z,99501.78
2022-08-09T00:44:11.447Z,99521.63
2022-08-09T00:45:36.995Z,99522.53
2022-08-09T00:48:23.241Z,99525.22
2022-08-09T00:51:12.983Z,99544.28
2022-08-09T00:53:59.542Z,99540.13
2022-08-09T00:56:47.344Z,99530.69
2022-08-09T00:59:41.610Z,99511.72
2022-08-09T01:02:33.949Z,99512.66
2022-08-09T01:05:51.533Z,99551.56
2022-08-09T01:08:49.545Z,99558.53
2022-08-09T01:11:56.178Z,99541.09
2022-08-09T01:14:55.443Z,99524.84
2022-08-09T01:17:57.691Z,99560.34
2022-08-09T01:20:47.402Z,99559.50
2022-08-09T01:24:03.222Z,99569.13
2022-08-09T01:27:02.789Z,99566.56
2022-08-09T01:29:57.016Z,99572.66
2022-08-09T01:32:46.367Z,99518.34
2022-08-09T01:35:44.825Z,99567.59
2022-08-09T01:38:36.330Z,99573.75
2022-08-09T01:41:29.479Z,99571.19
2022-08-09T01:44:17.328Z,99536.66
2022-08-09T01:47:07.758Z,99529.75
2022-08-09T01:50:06.447Z,99539.31
2022-08-09T01:52:56.122Z,99549.72
2022-08-09T01:55:42.931Z,99570.47
2022-08-09T01:58:31.640Z,99518.63
2022-08-09T02:01:20.077Z,99569.66
2022-08-09T02:04:18.089Z,99578.34
2022-08-09T02:08:34.626Z,99564.53
2022-08-09T02:10:35.443Z,99558.50
2022-08-09T02:13:37.578Z,99593.97
2022-08-09T02:16:33.949Z,99572.41
2022-08-09T02:19:39.210Z,99555.97
2022-08-09T02:22:39.881Z,99568.97
2022-08-09T02:25:30.691Z,99577.66
2022-08-09T02:28:41.466Z,99598.41
2022-08-09T02:31:35.496Z,99572.47
2022-08-09T02:34:41.654Z,99581.13
2022-08-09T02:37:39.143Z,99584.59
2022-08-09T02:40:34.774Z,99583.75
2022-08-09T02:43:23.522Z,99534.50
2022-08-09T02:46:16.583Z,99577.72
2022-08-09T02:49:07.719Z,99589.81
2022-08-09T02:51:59.582Z,99581.22
2022-08-09T02:54:54.986Z,99588.97
2022-08-09T02:58:00.672Z,99563.06
2022-08-09T03:00:58.576Z,99601.13
2022-08-09T03:04:18.052Z,99566.53
2022-08-09T03:06:54.168Z,99558.78
2022-08-09T03:09:56.281Z,99604.63
2022-08-09T03:12:49.294Z,99570.88
2022-08-09T03:15:40.617Z,99548.44
2022-08-09T03:18:47.560Z,99577.84
2022-08-09T03:21:39.681Z,99581.28
2022-08-09T03:24:31.610Z,99579.56
2022-08-09T03:27:37.246Z,99579.56
2022-08-09T03:30:36.611Z,99576.13
2022-08-09T03:33:24.278Z,99589.09
2022-08-09T03:36:16.474Z,99595.16
2022-08-09T03:39:05.285Z,99592.56
2022-08-09T03:41:52.003Z,99601.22
2022-08-09T03:44:53.040Z,99583.06
2022-08-09T03:47:46.835Z,99592.59
2022-08-09T03:50:36.202Z,99570.09
2022-08-09T03:53:23.820Z,99600.38
2022-08-09T03:56:18.751Z,99591.72
2022-08-09T03:59:07.122Z,99568.38
2022-08-09T04:01:55.917Z,99589.13
2022-08-09T04:04:46.196Z,99590.88
2022-08-09T04:07:52.620Z,99611.66
2022-08-09T04:10:39.986Z,99564.03
2022-08-09T04:13:26.467Z,99581.34
2022-08-09T04:16:32.483Z,99585.69
2022-08-09T04:19:42.839Z,99598.66
2022-08-09T04:22:25.235Z,99596.06
2022-08-09T04:25:14.257Z,99590.88
2022-08-09T04:28:03.499Z,99595.19
2022-08-09T04:30:49.733Z,99634.16
2022-08-09T04:33:52.037Z,99596.94
2022-08-09T04:36:44.934Z,99639.34
2022-08-09T04:39:40.707Z,99634.13
2022-08-09T04:42:31.415Z,99635.88
2022-08-09T04:45:20.698Z,99638.47
2022-08-09T04:48:10.563Z,99654.88
2022-08-09T04:50:56.896Z,99647.09
2022-08-09T04:53:43.866Z,99658.34
2022-08-09T04:56:30.410Z,99645.34
2022-08-09T04:59:16.657Z,99660.91
2022-08-09T05:02:07.407Z,99653.06
2022-08-09T05:04:55.551Z,99674.63
2022-08-09T05:07:42.288Z,99631.06
2022-08-09T05:10:33.109Z,99660.38
2022-08-09T05:13:23.125Z,99648.84
2022-08-09T05:16:15.038Z,99665.41
2022-08-09T05:19:02.900Z,99660.50
2022-08-09T05:21:55.149Z,99670.38
2022-08-09T05:24:42.189Z,99666.78
2022-08-09T05:27:34.181Z,99642.81
2022-08-09T05:30:31.768Z,99688.53
2022-08-09T05:33:18.156Z,99688.47
2022-08-09T05:36:05.123Z,99642.16
2022-08-09T05:38:53.379Z,99683.47
2022-08-09T05:41:40.214Z,99674.75
2022-08-09T05:44:30.659Z,99663.34
2022-08-09T05:47:21.388Z,99689.03
2022-08-09T05:50:25.546Z,99674.00
2022-08-09T05:53:21.822Z,99680.31
2022-08-09T05:56:19.718Z,99650.91
2022-08-09T05:59:12.035Z,99680.97
2022-08-09T06:02:02.066Z,99665.84
2022-08-09T06:04:48.330Z,99699.97
2022-08-09T06:07:35.265Z,99677.63
2022-08-09T06:10:37.729Z,99689.09
2022-08-09T06:13:25.101Z,99716.00
2022-08-09T06:16:11.305Z,99682.34
2022-08-09T06:18:59.056Z,99706.56
2022-08-09T06:21:51.554Z,99713.25
2022-08-09T06:24:45.156Z,99684.59
2022-08-09T06:27:42.997Z,99695.59
2022-08-09T06:30:37.944Z,99705.31
2022-08-09T06:33:41.120Z,99710.88
2022-08-09T06:36:29.903Z,99700.09
2022-08-09T06:39:16.503Z,99718.66
2022-08-09T06:42:08.730Z,99681.22
2022-08-09T06:44:58.586Z,99736.34
2022-08-09T06:47:45.284Z,99702.34
2022-08-09T06:50:32.046Z,99703.00
2022-08-09T06:53:18.933Z,99723.31
2022-08-09T06:56:09.299Z,99740.94
2022-08-09T07:00:52.217Z,99724.09
2022-08-09T07:02:04.574Z,99711.91
2022-08-09T07:04:51.300Z,99694.69
2022-08-09T07:08:00.694Z,99692.63
2022-08-09T07:10:44.687Z,99720.25
2022-08-09T07:13:45.005Z,99706.19
2022-08-09T07:16:41.446Z,99720.88
2022-08-09T07:19:29.498Z,99715.97
2022-08-09T07:22:16.623Z,99714.47
2022-08-09T07:25:05.449Z,99720.44
2022-08-09T07:27:55.996Z,99724.78
2022-08-09T07:30:42.402Z,99697.19
2022-08-09T07:33:52.059Z,99712.22
2022-08-09T07:36:36.892Z,99714.69
2022-08-09T07:39:40.174Z,99758.63
2022-08-09T07:42:32.807Z,99712.03
2022-08-09T07:45:39.244Z,99743.66
2022-08-09T07:48:30.150Z,99736.72
2022-08-09T07:52:03.311Z,99748.63
2022-08-09T07:54:28.132Z,99725.06
2022-08-09T07:57:16.287Z,99738.47
2022-08-09T08:00:04.161Z,99738.44
2022-08-09T08:03:00.966Z,99731.84
2022-08-09T08:05:57.700Z,99741.00
2022-08-09T08:09:03.179Z,99731.53
2022-08-09T08:12:10.751Z,99713.03
2022-08-09T08:14:57.261Z,99724.41
2022-08-09T08:17:54.039Z,99742.03
2022-08-09T08:20:42.913Z,99743.38
2022-08-09T08:23:29.442Z,99746.53
2022-08-09T08:26:26.737Z,99762.97
2022-08-09T08:29:28.590Z,99747.19
2022-08-09T08:32:29.392Z,99743.69
2022-08-09T08:35:18.181Z,99743.66
2022-08-09T08:38:11.303Z,99725.97
2022-08-09T08:40:59.137Z,99742.44
2022-08-09T08:43:45.612Z,99714.91
2022-08-09T08:46:41.422Z,99753.41
2022-08-09T08:49:48.374Z,99758.94
2022-08-09T08:52:57.590Z,99714.78
2022-08-09T08:55:45.837Z,99752.91
2022-08-09T08:58:33.318Z,99756.44
2022-08-09T09:01:24.905Z,99750.94
2022-08-09T09:04:13.075Z,99751.16
2022-08-09T09:07:08.314Z,99739.72
2022-08-09T09:10:01.805Z,99727.09
2022-08-09T09:12:51.815Z,99742.97
2022-08-09T09:15:42.293Z,99728.41
2022-08-09T09:18:35.670Z,99725.13
2022-08-09T09:21:26.312Z,99704.47
2022-08-09T09:24:21.941Z,99717.88
2022-08-09T09:28:03.169Z,99739.13
2022-08-09T09:30:38.086Z,99700.78
2022-08-09T09:33:44.881Z,99713.31
2022-08-09T09:36:38.611Z,99738.31
2022-08-09T09:39:54.681Z,99722.16
2022-08-09T09:42:43.049Z,99723.91
2022-08-09T09:49:05.951Z,99712.38
2022-08-09T09:52:16.630Z,99710.41
2022-08-09T09:55:28.492Z,99720.91
2022-08-09T09:58:19.717Z,99707.59
2022-08-09T10:01:31.217Z,99728.13
2022-08-09T10:04:30.969Z,99702.78
2022-08-09T10:07:26.334Z,99722.31
2022-08-09T10:10:12.542Z,99697.28
2022-08-09T10:13:05.297Z,99707.03
2022-08-09T10:16:55.148Z,99691.81
2022-08-09T10:19:03.373Z,99684.94
2022-08-09T10:21:50.838Z,99671.66
2022-08-09T10:24:39.535Z,99660.66
2022-08-09T10:27:28.640Z,99651.94
2022-08-09T10:34:04.713Z,99685.03
2022-08-09T10:36:36.646Z,99647.97
2022-08-09T10:39:27.598Z,99696.47
2022-08-09T10:42:16.041Z,99681.00
2022-08-09T10:45:11.862Z,99674.34
2022-08-09T10:48:30.079Z,99693.16
2022-08-09T10:51:45.647Z,99697.44
2022-08-09T10:54:39.671Z,99661.59
2022-08-09T10:57:36.360Z,99664.94
2022-08-09T11:00:41.705Z,99680.88
2022-08-09T11:04:28.146Z,99697.63
2022-08-09T11:07:18.303Z,99694.78
2022-08-09T11:10:09.309Z,99692.31
2022-08-09T11:13:50.402Z,99686.81
2022-08-09T11:16:33.469Z,99665.03
2022-08-09T11:20:11.888Z,99688.50
2022-08-09T11:22:58.618Z,99632.91
2022-08-09T11:25:47.473Z,99694.69
2022-08-09T11:28:54.258Z,99681.72
2022-08-09T11:31:49.774Z,99654.75
2022-08-09T11:34:48.373Z,99644.22
2022-08-09T11:37:41.446Z,99664.34
2022-08-09T11:40:32.049Z,99672.66
2022-08-09T11:43:32.322Z,99669.81
2022-08-09T11:46:32.837Z,99651.47
2022-08-09T11:50:55.896Z,99646.88
2022-08-09T11:53:44.064Z,99651.28
2022-08-09T11:56:19.616Z,99650.75
2022-08-09T11:59:09.117Z,99615.41
2022-08-09T12:02:17.643Z,99612.47
2022-08-09T12:05:03.826Z,99635.16
2022-08-09T12:07:54.788Z,99628.56
2022-08-09T12:11:00.527Z,99597.66
2022-08-09T12:14:08.167Z,99640.78
2022-08-09T12:16:56.977Z,99628.41
2022-08-09T12:19:44.698Z,99612.00
2022-08-09T12:22:37.305Z,99625.81
2022-08-09T12:25:35.833Z,99587.94
2022-08-09T12:29:13.478Z,99616.88
2022-08-09T12:32:02.258Z,99626.00
2022-08-09T12:34:41.686Z,99613.63
2022-08-09T12:37:50.196Z,99636.03
2022-08-09T12:40:45.647Z,99621.41
2022-08-09T12:44:06.068Z,99611.69
2022-08-09T12:46:49.152Z,99625.63
2022-08-09T12:49:38.003Z,99621.97
2022-08-09T12:52:44.181Z,99607.03
2022-08-09T12:56:14.374Z,99586.84
2022-08-09T12:58:42.758Z,99598.38
2022-08-09T13:01:30.454Z,99594.56
2022-08-09T13:04:27.511Z,99584.47
2022-08-09T13:07:28.689Z,99583.69
2022-08-09T13:10:34.687Z,99576.13
2022-08-09T13:13:29.011Z,99609.03
2022-08-09T13:16:45.805Z,99532.63
2022-08-09T13:20:08.803Z,99602.03
2022-08-09T13:23:01.804Z,99585.59
2022-08-09T13:25:54.607Z,99574.69
2022-08-09T13:29:01.419Z,99575.53
2022-08-09T13:32:17.132Z,99555.72
2022-08-09T13:35:06.737Z,99567.72
2022-08-09T13:37:59.495Z,99584.34
2022-08-09T13:41:51.304Z,99558.53
2022-08-09T13:44:06.333Z,99539.09
2022-08-09T13:47:28.901Z,99555.25
2022-08-09T13:50:12.858Z,99592.00
2022-08-09T13:53:04.708Z,99576.59
2022-08-09T13:55:53.866Z,99574.91
2022-08-09T13:58:40.496Z,99560.25
2022-08-09T14:02:00.875Z,99569.81
2022-08-09T14:04:34.855Z,99552.00
2022-08-09T14:07:21.486Z,99553.75
2022-08-09T14:10:37.348Z,99537.56
2022-08-09T14:14:15.233Z,99577.59
2022-08-09T14:16:31.008Z,99560.81
2022-08-09T14:19:17.934Z,99558.75
2022-08-09T14:22:07.400Z,99539.03
2022-08-09T14:24:55.388Z,99563.38
2022-08-09T14:27:58.264Z,99549.91
2022-08-09T14:30:45.365Z,99555.94
2022-08-09T14:33:38.133Z,99548.66
2022-08-09T14:36:24.759Z,99551.66
2022-08-09T14:39:12.066Z,99558.53
2022-08-09T14:41:58.806Z,99538.50
2022-08-09T14:44:48.957Z,99515.44
2022-08-09T14:47:56.815Z,99549.78
2022-08-09T14:50:47.466Z,99531.22
2022-08-09T14:53:39.779Z,99545.06
2022-08-09T14:56:26.954Z,99530.72
2022-08-09T14:59:14.560Z,99542.91
2022-08-09T15:02:01.104Z,99553.91
2022-08-09T15:04:49.716Z,99521.69
2022-08-09T15:07:37.851Z,99538.13
2022-08-09T15:10:32.846Z,99553.09
2022-08-09T15:13:19.187Z,99548.84
2022-08-09T15:16:07.963Z,99523.00
2022-08-09T15:18:54.954Z,99552.22
2022-08-09T15:21:58.871Z,99537.41
2022-08-09T15:24:48.947Z,99516.41
2022-08-09T15:27:48.132Z,99515.75
2022-08-09T15:30:57.474Z,99525.56
2022-08-09T15:34:27.516Z,99514.78
2022-08-09T15:36:54.601Z,99514.66
2022-08-09T15:39:53.633Z,99529.94
2022-08-09T15:42:43.847Z,99513.63
2022-08-09T15:45:31.099Z,99523.00
2022-08-09T15:48:37.721Z,99512.78
2022-08-09T15:51:30.389Z,99531.75
2022-08-09T15:54:48.998Z,99513.25
2022-08-09T15:57:44.184Z,99481.97
2022-08-09T16:00:31.311Z,99520.06
2022-08-09T16:03:29.533Z,99522.94
2022-08-09T16:06:34.760Z,99483.38
2022-08-09T16:09:32.655Z,99526.63
2022-08-09T16:12:30.817Z,99498.72
2022-08-09T16:16:10.202Z,99496.16
2022-08-09T16:18:24.070Z,99484.34
2022-08-09T16:21:10.282Z,99510.03
2022-08-09T16:23:58.639Z,99485.94
2022-08-09T16:26:48.901Z,99476.38
2022-08-09T16:29:37.772Z,99498.72
2022-08-09T16:32:54.726Z,99492.56
2022-08-09T16:35:55.869Z,99517.59
2022-08-09T16:38:45.974Z,99517.28
2022-08-09T16:42:02.342Z,99490.97
2022-08-09T16:44:44.589Z,99502.69
2022-08-09T16:48:38.020Z,99487.44
2022-08-09T16:50:38.402Z,99469.13
2022-08-09T16:53:25.296Z,99497.88
2022-08-09T16:56:18.945Z,99501.72
2022-08-09T16:59:11.756Z,99500.13
2022-08-09T17:01:58.053Z,99504.63
2022-08-09T17:04:45.733Z,99490.31
2022-08-09T17:08:45.319Z,99500.56
2022-08-09T17:10:38.866Z,99510.47
2022-08-09T17:13:29.518Z,99513.03
2022-08-09T17:16:20.943Z,99482.09
2022-08-09T17:19:07.589Z,99502.88
2022-08-09T17:21:57.469Z,99503.06
2022-08-09T17:24:47.825Z,99501.06
2022-08-09T17:27:49.410Z,99515.09
2022-08-09T17:30:40.929Z,99512.56
2022-08-09T17:33:37.780Z,99514.00
2022-08-09T17:36:24.474Z,99495.88
2022-08-09T17:39:14.405Z,99519.00
2022-08-09T17:42:01.689Z,99504.72
2022-08-09T17:44:49.680Z,99508.66
2022-08-09T17:47:49.260Z,99472.78
2022-08-09T17:50:37.737Z,99505.78
2022-08-09T17:53:24.382Z,99479.78
2022-08-09T17:56:10.857Z,99513.56
2022-08-09T17:59:03.216Z,99518.88
2022-08-09T18:02:07.645Z,99525.63
2022-08-09T18:04:59.112Z,99525.69
2022-08-09T18:07:48.734Z,99509.84
2022-08-09T18:10:35.666Z,99489.72
2022-08-09T18:13:43.326Z,99525.16
2022-08-09T18:16:30.376Z,99485.75
2022-08-09T18:20:55.492Z,99513.22
2022-08-09T18:22:25.399Z,99533.16
2022-08-09T18:25:11.929Z,99512.25
2022-08-09T18:28:05.516Z,99521.56
2022-08-09T18:31:00.116Z,99518.53
2022-08-09T18:33:53.310Z,99516.19
2022-08-09T18:36:40.407Z,99539.47
2022-08-09T18:39:33.184Z,99569.59
2022-08-09T18:42:19.399Z,99546.13
2022-08-09T18:45:08.720Z,99552.75
2022-08-09T18:47:55.364Z,99565.56
2022-08-09T18:50:45.229Z,99564.16
2022-08-09T18:53:56.649Z,99569.75
2022-08-09T18:56:40.555Z,99576.34
2022-08-09T18:59:27.262Z,99562.41
2022-08-09T19:02:32.713Z,99583.47
2022-08-09T19:05:41.388Z,99582.59
2022-08-09T19:08:28.049Z,99595.25
2022-08-09T19:11:14.939Z,99563.94
2022-08-09T19:14:03.083Z,99581.50
2022-08-09T19:16:50.335Z,99579.47
2022-08-09T19:19:41.407Z,99574.75
2022-08-09T19:22:28.573Z,99559.22
2022-08-09T19:25:41.396Z,99586.16
2022-08-09T19:28:21.559Z,99589.66
2022-08-09T19:31:08.250Z,99585.38
2022-08-09T19:33:55.946Z,99580.69
2022-08-09T19:36:43.697Z,99569.03
2022-08-09T19:40:02.591Z,99589.56
2022-08-09T19:42:36.775Z,99607.09
2022-08-09T19:45:25.408Z,99609.25
2022-08-09T19:49:01.004Z,99609.31
2022-08-09T19:51:32.390Z,99610.88
2022-08-09T19:54:25.383Z,99585.50
2022-08-09T19:57:11.883Z,99609.22
2022-08-09T20:00:07.494Z,99590.97
2022-08-09T20:04:18.172Z,99590.81
2022-08-09T20:06:05.985Z,99608.13
2022-08-09T20:09:20.578Z,99597.13
2022-08-09T20:12:29.822Z,99607.75
2022-08-09T20:16:35.459Z,99609.66
2022-08-09T20:18:31.038Z,99589.19
2022-08-09T20:21:17.379Z,99616.84
2022-08-09T20:24:08.392Z,99614.84
2022-08-09T20:26:57.187Z,99619.31
2022-08-09T20:29:44.758Z,99602.94
2022-08-09T20:32:34.102Z,99606.91
2022-08-09T20:35:21.655Z,99619.53
2022-08-09T20:38:22.233Z,99581.34
2022-08-09T20:41:14.500Z,99571.38
2022-08-09T20:44:01.199Z,99583.13
2022-08-09T20:46:48.453Z,99586.09
2022-08-09T20:49:37.495Z,99612.47
2022-08-09T20:52:23.961Z,99566.75
2022-08-09T20:55:11.950Z,99581.03
2022-08-09T20:58:05.259Z,99597.69
2022-08-09T21:01:13.990Z,99619.63
2022-08-09T21:04:08.379Z,99608.88
2022-08-09T21:07:12.565Z,99629.13
2022-08-09T21:10:00.269Z,99568.38
2022-08-09T21:15:51.876Z,99639.81
2022-08-09T21:19:01.382Z,99640.94
2022-08-09T21:21:56.378Z,99614.72
2022-08-09T21:25:02.272Z,99607.09
2022-08-09T21:27:52.750Z,99592.13
2022-08-09T21:30:40.888Z,99602.81
2022-08-09T21:33:27.326Z,99614.88
2022-08-09T21:36:27.875Z,99646.25
2022-08-09T21:39:21.839Z,99618.88
2022-08-09T21:42:14.077Z,99636.25
2022-08-09T21:45:01.220Z,99627.97
2022-08-09T21:47:50.988Z,99656.69
2022-08-09T21:50:51.144Z,99648.34
2022-08-09T21:53:40.973Z,99650.25
2022-08-09T21:56:42.023Z,99643.06
2022-08-09T21:59:42.743Z,99633.56
2022-08-09T22:02:36.900Z,99625.28
2022-08-09T22:05:35.911Z,99664.38
2022-08-09T22:08:25.740Z,99632.69
2022-08-09T22:12:04.302Z,99626.66
2022-08-09T22:14:18.824Z,99648.22
2022-08-09T22:17:05.785Z,99613.75
2022-08-09T22:19:59.060Z,99630.97
2022-08-09T22:22:47.255Z,99632.94
2022-08-09T22:26:06.492Z,99635.69
2022-08-09T22:28:47.119Z,99629.09
2022-08-09T22:31:44.603Z,99626.69
2022-08-09T22:34:43.147Z,99640.63
2022-08-09T22:37:40.385Z,99658.84
2022-08-09T22:40:28.412Z,99648.00
2022-08-09T22:43:16.988Z,99635.31
2022-08-09T22:48:12.246Z,99642.41
2022-08-09T22:49:28.224Z,99652.91
2022-08-09T22:52:17.638Z,99670.28
2022-08-09T22:55:07.239Z,99651.38
2022-08-09T22:57:59.856Z,99673.00
2022-08-09T23:00:46.909Z,99649.84
2022-08-09T23:04:04.020Z,99667.88
2022-08-09T23:07:00.143Z,99646.47
2022-08-09T23:09:46.961Z,99649.94
2022-08-09T23:12:33.505Z,99637.94
2022-08-09T23:15:19.820Z,99634.63
2022-08-09T23:18:06.296Z,99648.41
2022-08-09T23:20:52.530Z,99646.75
2022-08-09T23:23:39.227Z,99655.56
2022-08-09T23:26:25.930Z,99662.59
2022-08-09T23:29:13.942Z,99671.41
2022-08-09T23:32:00.420Z,99625.69
2022-08-09T23:34:51.205Z,99650.03
2022-08-09T23:37:37.869Z,99630.22
2022-08-09T23:40:24.120Z,99632.00
2022-08-09T23:43:10.358Z,99632.97
2022-08-09T23:45:56.605Z,99637.38
2022-08-09T23:48:43.241Z,99647.75
2022-08-09T23:51:29.741Z,99634.13
2022-08-09T23:54:16.114Z,99597.88
2022-08-09T23:57:05.279Z,99635.09
